Westmere, New York
Current Conditions -  °F | °C
As of 8:51 PM on Tuesday 25 Nov 2014 (Local Time) from KALB Reporting Station
Broken Clouds Broken Clouds  
Wind Chill: 36°   Ceiling: 26000
Heat Index: 43°   Visibility: 10mi
Dew Point: 27°   Wind: 14mph
Humidity: 53%   Direction: 300°WNW
Pressure: 30.09"   Gusts: NA
Location:  42.6834°N, 73.8519°W
Report Text: KALB 260151Z 30012KT 10SM BKN260 06/M03 A3009 RMK AO2 SLP192 T00611028
Loading
Personal Weather Stations






























Interactive Weather Map New forecast layout! Learn more

10-Day Weather Forecast

Advertisements
Track Severe Weather on mobile